Terminal Aerodrome Forecast
Issued by NWS

Home | Current Version | Previous Version | Text Only | Print | Product List | Glossary On
Versions: 1 2 3 4 5 6 7 8 9 10 11 12 13 14 15 16 17 18 19 20 21
000
FTUS43 KAPX 221157 AAA
TAFMBL
TAF AMD
KMBL 221157Z 2212/2312 00000KT 1/2SM FG OVC002
      TEMPO 2212/2214 VV001
     FM221400 VRB03KT 3/4SM BR OVC008
     FM221600 00000KT 4SM BR OVC010
     FM230000 00000KT 1 1/2SM BR OVC008
     FM230200 00000KT 1/2SM FG OVC005
     FM230600 VRB03KT 1/2SM -DZ FG OVC003
     FM231100 VRB03KT 1 1/2SM -DZ BR OVC008=

USA.gov is the U.S. government's official web portal to all federal, state and local government web resources and services.